createdAt,value
2016-07-09T00:00:21.630Z,22.86
2016-07-09T00:01:21.612Z,22.79
2016-07-09T00:02:21.602Z,22.78
2016-07-09T00:03:20.962Z,22.84
2016-07-09T00:04:21.562Z,22.76
2016-07-09T00:05:20.934Z,22.76
2016-07-09T00:06:21.535Z,22.79
2016-07-09T00:07:21.529Z,22.78
2016-07-09T00:08:21.510Z,22.82
2016-07-09T00:09:21.496Z,22.79
2016-07-09T00:10:21.473Z,22.81
2016-07-09T00:11:21.460Z,22.81
2016-07-09T00:12:21.445Z,22.76
2016-07-09T00:13:21.437Z,22.79
2016-07-09T00:14:20.804Z,22.79
2016-07-09T00:15:21.406Z,22.82
2016-07-09T00:16:21.400Z,22.84
2016-07-09T00:17:21.369Z,22.82
2016-07-09T00:18:21.349Z,22.79
2016-07-09T00:19:21.358Z,22.81
2016-07-09T00:20:21.329Z,22.81
2016-07-09T00:21:21.312Z,22.84
2016-07-09T00:22:21.304Z,22.79
2016-07-09T00:23:21.297Z,22.81
2016-07-09T00:24:21.258Z,22.81
2016-07-09T00:25:21.250Z,22.86
2016-07-09T00:26:21.242Z,22.82
2016-07-09T00:27:21.227Z,22.84
2016-07-09T00:28:20.592Z,22.82
2016-07-09T00:29:21.196Z,22.84
2016-07-09T00:30:21.174Z,22.79
2016-07-09T00:31:21.160Z,22.84
2016-07-09T00:32:21.145Z,22.82
2016-07-09T00:33:20.518Z,22.84
2016-07-09T00:34:21.115Z,22.86
2016-07-09T00:35:21.111Z,22.82
2016-07-09T00:36:21.090Z,22.79
2016-07-09T00:37:21.072Z,22.84
2016-07-09T00:38:21.058Z,22.84
2016-07-09T00:39:21.056Z,22.82
2016-07-09T00:40:19.797Z,22.86
2016-07-09T00:41:21.015Z,22.81
2016-07-09T00:42:20.998Z,22.82
2016-07-09T00:43:20.987Z,22.81
2016-07-09T00:44:20.964Z,22.84
2016-07-09T00:45:20.957Z,22.81
2016-07-09T00:46:20.319Z,22.84
2016-07-09T00:47:20.927Z,22.85
2016-07-09T00:48:20.896Z,22.82
2016-07-09T00:49:20.892Z,22.86
2016-07-09T00:50:20.875Z,22.85
2016-07-09T00:51:20.862Z,22.78
2016-07-09T00:52:20.851Z,22.86
2016-07-09T00:53:20.834Z,22.91
2016-07-09T00:54:20.814Z,22.84
2016-07-09T00:55:20.793Z,22.81
2016-07-09T00:56:20.781Z,22.82
2016-07-09T00:57:20.770Z,22.82
2016-07-09T00:58:20.760Z,22.82
2016-07-09T00:59:20.744Z,22.81
2016-07-09T01:00:20.731Z,22.82
2016-07-09T01:01:20.719Z,22.84
2016-07-09T01:02:20.694Z,22.88
2016-07-09T01:03:20.685Z,22.86
2016-07-09T01:04:20.048Z,22.84
2016-07-09T01:05:20.652Z,22.89
2016-07-09T01:06:20.634Z,22.88
2016-07-09T01:07:20.614Z,22.84
2016-07-09T01:08:20.603Z,22.84
2016-07-09T01:09:20.588Z,22.84
2016-07-09T01:10:20.576Z,22.89
2016-07-09T01:11:19.943Z,22.84
2016-07-09T01:12:20.544Z,22.84
2016-07-09T01:13:20.541Z,22.82
2016-07-09T01:14:19.900Z,22.78
2016-07-09T01:15:20.506Z,22.85
2016-07-09T01:16:19.870Z,22.82
2016-07-09T01:17:20.468Z,22.81
2016-07-09T01:18:20.453Z,22.88
2016-07-09T01:19:20.436Z,22.84
2016-07-09T01:20:20.424Z,22.86
2016-07-09T01:21:20.411Z,22.81
2016-07-09T01:22:20.393Z,22.84
2016-07-09T01:23:20.379Z,22.86
2016-07-09T01:24:20.360Z,22.88
2016-07-09T01:25:20.357Z,22.85
2016-07-09T01:26:19.715Z,22.82
2016-07-09T01:27:20.324Z,22.88
2016-07-09T01:28:20.314Z,22.89
2016-07-09T01:29:20.295Z,22.88
2016-07-09T01:30:20.292Z,22.94
2016-07-09T01:31:20.266Z,22.84
2016-07-09T01:32:20.239Z,22.82
2016-07-09T01:33:20.234Z,22.91
2016-07-09T01:34:20.215Z,22.91
2016-07-09T01:35:20.198Z,22.91
2016-07-09T01:36:20.185Z,22.84
2016-07-09T01:37:19.553Z,22.91
2016-07-09T01:38:20.158Z,22.82
2016-07-09T01:39:20.145Z,22.86
2016-07-09T01:40:20.123Z,22.93
2016-07-09T01:41:20.111Z,22.93
2016-07-09T01:42:20.092Z,22.93
2016-07-09T01:43:20.083Z,22.91
2016-07-09T01:44:20.068Z,22.84
2016-07-09T01:45:19.439Z,22.84
2016-07-09T01:46:20.028Z,22.85
2016-07-09T01:47:20.021Z,22.88
2016-07-09T01:48:20.000Z,22.84
2016-07-09T01:49:19.982Z,22.88
2016-07-09T01:50:19.370Z,22.84
2016-07-09T01:51:19.974Z,22.85
2016-07-09T01:52:19.949Z,22.86
2016-07-09T01:53:19.317Z,22.86
2016-07-09T01:54:19.300Z,22.88
2016-07-09T01:55:19.894Z,22.84
2016-07-09T01:56:19.883Z,22.91
2016-07-09T01:57:19.254Z,22.91
2016-07-09T01:58:19.849Z,22.89
2016-07-09T01:59:19.838Z,22.89
2016-07-09T02:00:19.206Z,22.93
2016-07-09T02:01:19.816Z,22.84
2016-07-09T02:02:19.794Z,22.88
2016-07-09T02:03:19.786Z,22.86
2016-07-09T02:04:19.764Z,22.84
2016-07-09T02:05:19.741Z,22.91
2016-07-09T02:06:19.123Z,22.86
2016-07-09T02:07:19.722Z,22.89
2016-07-09T02:08:19.703Z,22.84
2016-07-09T02:09:19.685Z,22.85
2016-07-09T02:10:19.672Z,22.89
2016-07-09T02:11:19.656Z,22.84
2016-07-09T02:12:19.024Z,22.91
2016-07-09T02:13:19.627Z,22.91
2016-07-09T02:14:19.612Z,22.88
2016-07-09T02:15:18.987Z,22.89
2016-07-09T02:16:18.967Z,22.84
2016-07-09T02:17:19.566Z,22.88
2016-07-09T02:18:18.947Z,22.91
2016-07-09T02:19:19.543Z,22.89
2016-07-09T02:20:19.524Z,22.93
2016-07-09T02:21:19.512Z,22.88
2016-07-09T02:22:19.496Z,22.88
2016-07-09T02:23:19.472Z,22.84
2016-07-09T02:24:19.462Z,22.85
2016-07-09T02:25:18.833Z,22.84
2016-07-09T02:26:19.432Z,22.82
2016-07-09T02:27:19.419Z,22.89
2016-07-09T02:28:19.407Z,22.86
2016-07-09T02:29:19.390Z,22.93
2016-07-09T02:30:19.380Z,22.91
2016-07-09T02:31:19.357Z,22.86
2016-07-09T02:32:19.341Z,22.96
2016-07-09T02:33:19.331Z,22.81
2016-07-09T02:34:19.307Z,22.84
2016-07-09T02:35:19.308Z,22.86
2016-07-09T02:36:19.278Z,22.89
2016-07-09T02:37:19.270Z,22.91
2016-07-09T02:38:19.255Z,22.88
2016-07-09T02:39:19.241Z,22.86
2016-07-09T02:40:19.225Z,22.84
2016-07-09T02:41:19.207Z,22.93
2016-07-09T02:42:19.194Z,22.89
2016-07-09T02:43:19.178Z,22.85
2016-07-09T02:44:19.161Z,22.91
2016-07-09T02:45:18.532Z,22.81
2016-07-09T02:46:19.128Z,22.84
2016-07-09T02:47:19.116Z,22.85
2016-07-09T02:48:19.103Z,22.85
2016-07-09T02:49:19.096Z,22.88
2016-07-09T02:50:19.075Z,22.84
2016-07-09T02:51:19.074Z,22.88
2016-07-09T02:52:18.424Z,22.84
2016-07-09T02:53:18.412Z,22.85
2016-07-09T02:54:19.015Z,22.88
2016-07-09T02:55:19.002Z,22.85
2016-07-09T02:56:18.992Z,22.84
2016-07-09T02:57:18.970Z,22.89
2016-07-09T02:58:18.954Z,22.84
2016-07-09T02:59:18.940Z,22.82
2016-07-09T03:00:18.940Z,22.88
2016-07-09T03:01:18.912Z,22.81
2016-07-09T03:02:18.281Z,22.84
2016-07-09T03:03:18.900Z,22.86
2016-07-09T03:04:18.865Z,22.82
2016-07-09T03:05:18.851Z,22.84
2016-07-09T03:06:18.223Z,22.82
2016-07-09T03:07:18.814Z,22.81
2016-07-09T03:08:18.802Z,22.86
2016-07-09T03:09:18.797Z,22.84
2016-07-09T03:10:18.776Z,22.86
2016-07-09T03:11:18.763Z,22.84
2016-07-09T03:12:18.123Z,22.88
2016-07-09T03:13:18.742Z,22.89
2016-07-09T03:14:18.713Z,22.84
2016-07-09T03:15:18.708Z,22.85
2016-07-09T03:16:18.694Z,22.82
2016-07-09T03:17:18.672Z,22.84
2016-07-09T03:18:18.652Z,22.84
2016-07-09T03:19:18.636Z,22.86
2016-07-09T03:20:18.620Z,22.89
2016-07-09T03:21:18.614Z,22.82
2016-07-09T03:22:18.603Z,22.88
2016-07-09T03:23:17.965Z,22.86
2016-07-09T03:24:18.563Z,22.79
2016-07-09T03:25:18.552Z,22.81
2016-07-09T03:26:18.532Z,22.84
2016-07-09T03:27:17.933Z,22.81
2016-07-09T03:28:18.509Z,22.81
2016-07-09T03:29:18.486Z,22.81
2016-07-09T03:30:18.532Z,22.81
2016-07-09T03:31:18.468Z,22.85
2016-07-09T03:32:18.452Z,22.85
2016-07-09T03:33:18.428Z,22.82
2016-07-09T03:34:18.423Z,22.81
2016-07-09T03:35:18.400Z,22.78
2016-07-09T03:36:17.768Z,22.85
2016-07-09T03:37:18.380Z,22.79
2016-07-09T03:38:18.361Z,22.82
2016-07-09T03:39:18.344Z,22.79
2016-07-09T03:40:18.323Z,22.82
2016-07-09T03:41:18.316Z,22.86
2016-07-09T03:42:18.297Z,22.85
2016-07-09T03:43:18.283Z,22.84
2016-07-09T03:44:18.270Z,22.82
2016-07-09T03:45:18.270Z,22.78
2016-07-09T03:46:18.235Z,22.86
2016-07-09T03:47:18.215Z,22.78
2016-07-09T03:48:18.206Z,22.79
2016-07-09T03:49:18.190Z,22.86
2016-07-09T03:50:18.190Z,22.82
2016-07-09T03:51:18.164Z,22.84
2016-07-09T03:52:18.146Z,22.84
2016-07-09T03:53:18.130Z,22.84
2016-07-09T03:54:18.116Z,22.75
2016-07-09T03:55:18.100Z,22.81
2016-07-09T03:56:18.094Z,22.79
2016-07-09T03:57:18.066Z,22.82
2016-07-09T03:58:18.058Z,22.78
2016-07-09T03:59:18.039Z,22.76
2016-07-09T04:00:18.028Z,22.85
2016-07-09T04:01:17.399Z,22.74
2016-07-09T04:02:18.000Z,22.75
2016-07-09T04:03:17.996Z,22.84
2016-07-09T04:04:17.350Z,22.81
2016-07-09T04:05:17.952Z,22.78
2016-07-09T04:06:17.939Z,22.76
2016-07-09T04:07:16.704Z,22.75
2016-07-09T04:08:17.908Z,22.76
2016-07-09T04:09:17.889Z,22.72
2016-07-09T04:10:17.875Z,22.78
2016-07-09T04:11:17.858Z,22.76
2016-07-09T04:12:17.845Z,22.79
2016-07-09T04:13:17.830Z,22.79
2016-07-09T04:14:17.813Z,22.81
2016-07-09T04:15:17.801Z,22.74
2016-07-09T04:16:17.786Z,22.81
2016-07-09T04:17:17.771Z,22.76
2016-07-09T04:18:17.758Z,22.74
2016-07-09T04:19:17.742Z,22.72
2016-07-09T04:20:17.726Z,22.74
2016-07-09T04:21:17.710Z,22.75
2016-07-09T04:22:17.697Z,22.76
2016-07-09T04:23:17.678Z,22.75
2016-07-09T04:24:17.669Z,22.75
2016-07-09T04:25:17.648Z,22.81
2016-07-09T04:26:17.638Z,22.67
2016-07-09T04:27:17.621Z,22.69
2016-07-09T04:28:17.612Z,22.74
2016-07-09T04:29:17.588Z,22.74
2016-07-09T04:30:17.016Z,22.72
2016-07-09T04:31:17.550Z,22.69
2016-07-09T04:32:17.545Z,22.66
2016-07-09T04:33:17.524Z,22.67
2016-07-09T04:34:17.518Z,22.72
2016-07-09T04:35:17.494Z,22.67
2016-07-09T04:36:17.486Z,22.67
2016-07-09T04:37:17.465Z,22.76
2016-07-09T04:38:16.225Z,22.7
2016-07-09T04:39:17.442Z,22.69
2016-07-09T04:40:17.424Z,22.7
2016-07-09T04:41:17.410Z,22.7
2016-07-09T04:42:17.394Z,22.74
2016-07-09T04:43:17.374Z,22.7
2016-07-09T04:44:17.372Z,22.69
2016-07-09T04:45:17.352Z,22.75
2016-07-09T04:46:17.337Z,22.69
2016-07-09T04:47:17.324Z,22.69
2016-07-09T04:48:17.306Z,22.72
2016-07-09T04:49:17.286Z,22.75
2016-07-09T04:50:17.279Z,22.72
2016-07-09T04:51:16.650Z,22.7
2016-07-09T04:52:17.251Z,22.69
2016-07-09T04:53:16.608Z,22.69
2016-07-09T04:54:17.226Z,22.7
2016-07-09T04:55:17.200Z,22.69
2016-07-09T04:56:17.188Z,22.64
2016-07-09T04:57:17.170Z,22.7
2016-07-09T04:58:17.149Z,22.67
2016-07-09T04:59:16.528Z,22.67
2016-07-09T05:00:17.127Z,22.69
2016-07-09T05:01:16.486Z,22.7
2016-07-09T05:02:17.091Z,22.72
2016-07-09T05:03:17.083Z,22.75
2016-07-09T05:04:17.068Z,22.72
2016-07-09T05:05:16.438Z,22.66
2016-07-09T05:06:17.037Z,22.7
2016-07-09T05:07:17.018Z,22.69
2016-07-09T05:08:16.999Z,22.72
2016-07-09T05:09:16.987Z,22.7
2016-07-09T05:10:16.977Z,22.66
2016-07-09T05:11:16.342Z,22.64
2016-07-09T05:12:16.948Z,22.69
2016-07-09T05:13:16.928Z,22.66
2016-07-09T05:14:16.919Z,22.69
2016-07-09T05:15:16.903Z,22.64
2016-07-09T05:16:16.888Z,22.64
2016-07-09T05:17:16.869Z,22.67
2016-07-09T05:18:16.866Z,22.67
2016-07-09T05:19:16.835Z,22.69
2016-07-09T05:20:16.817Z,22.69
2016-07-09T05:21:16.798Z,22.69
2016-07-09T05:22:16.804Z,22.64
2016-07-09T05:23:16.778Z,22.7
2016-07-09T05:24:15.538Z,22.74
2016-07-09T05:25:16.739Z,22.64
2016-07-09T05:26:16.728Z,22.7
2016-07-09T05:27:16.713Z,22.72
2016-07-09T05:28:16.691Z,22.74
2016-07-09T05:29:16.688Z,22.74
2016-07-09T05:30:16.673Z,22.72
2016-07-09T05:31:16.647Z,22.75
2016-07-09T05:32:16.654Z,22.74
2016-07-09T05:33:16.622Z,22.69
2016-07-09T05:34:16.605Z,22.75
2016-07-09T05:35:16.601Z,22.78
2016-07-09T05:36:16.579Z,22.78
2016-07-09T05:37:16.572Z,22.76
2016-07-09T05:38:16.545Z,22.7
2016-07-09T05:39:16.542Z,22.67
2016-07-09T05:40:16.520Z,22.75
2016-07-09T05:41:16.506Z,22.76
2016-07-09T05:42:16.491Z,22.75
2016-07-09T05:43:16.487Z,22.75
2016-07-09T05:44:16.456Z,22.66
2016-07-09T05:45:16.446Z,22.7
2016-07-09T05:46:15.823Z,22.75
2016-07-09T05:47:16.417Z,22.7
2016-07-09T05:48:16.401Z,22.75
2016-07-09T05:49:16.384Z,22.7
2016-07-09T05:50:16.368Z,22.72
2016-07-09T05:51:16.361Z,22.67
2016-07-09T05:52:16.334Z,22.76
2016-07-09T05:53:16.325Z,22.69
2016-07-09T05:54:16.305Z,22.67
2016-07-09T05:55:16.288Z,22.75
2016-07-09T05:56:16.286Z,22.75
2016-07-09T05:57:15.647Z,22.7
2016-07-09T05:58:16.264Z,22.72
2016-07-09T05:59:15.626Z,22.7
2016-07-09T06:00:16.216Z,22.64
2016-07-09T06:01:16.197Z,22.7
2016-07-09T06:02:16.185Z,22.75
2016-07-09T06:03:16.173Z,22.7
2016-07-09T06:04:16.173Z,22.72
2016-07-09T06:05:16.142Z,22.69
2016-07-09T06:06:15.529Z,22.7
2016-07-09T06:07:16.112Z,22.72
2016-07-09T06:08:16.097Z,22.75
2016-07-09T06:09:16.093Z,22.76
2016-07-09T06:10:15.448Z,22.74
2016-07-09T06:11:16.055Z,22.75
2016-07-09T06:12:16.036Z,22.72
2016-07-09T06:13:16.027Z,22.76
2016-07-09T06:14:16.007Z,22.75
2016-07-09T06:15:15.992Z,22.78
2016-07-09T06:16:15.971Z,22.75
2016-07-09T06:17:15.966Z,22.81
2016-07-09T06:18:15.946Z,22.7
2016-07-09T06:19:15.943Z,22.72
2016-07-09T06:20:15.915Z,22.69
2016-07-09T06:21:15.906Z,22.79
2016-07-09T06:22:15.890Z,22.74
2016-07-09T06:23:15.868Z,22.66
2016-07-09T06:24:15.854Z,22.67
2016-07-09T06:25:15.858Z,22.72
2016-07-09T06:26:15.824Z,22.67
2016-07-09T06:27:15.812Z,22.76
2016-07-09T06:28:15.803Z,22.66
2016-07-09T06:29:15.783Z,22.74
2016-07-09T06:30:15.815Z,22.76
2016-07-09T06:31:15.754Z,22.67
2016-07-09T06:32:15.730Z,22.7
2016-07-09T06:33:15.723Z,22.75
2016-07-09T06:34:15.704Z,22.67
2016-07-09T06:35:15.699Z,22.72
2016-07-09T06:36:15.674Z,22.69
2016-07-09T06:37:15.046Z,22.69
2016-07-09T06:38:15.033Z,22.67
2016-07-09T06:39:15.635Z,22.67
2016-07-09T06:40:15.615Z,22.7
2016-07-09T06:41:15.603Z,22.74
2016-07-09T06:42:15.585Z,22.72
2016-07-09T06:43:15.580Z,22.7
2016-07-09T06:44:15.550Z,22.66
2016-07-09T06:45:15.539Z,22.75
2016-07-09T06:46:15.518Z,22.74
2016-07-09T06:47:15.518Z,22.67
2016-07-09T06:48:15.495Z,22.72
2016-07-09T06:49:15.487Z,22.75
2016-07-09T06:50:15.461Z,22.7
2016-07-09T06:51:15.455Z,22.74
2016-07-09T06:52:15.439Z,22.66
2016-07-09T06:53:15.417Z,22.69
2016-07-09T06:54:15.407Z,22.64
2016-07-09T06:55:14.778Z,22.74
2016-07-09T06:56:15.381Z,22.7
2016-07-09T06:57:15.364Z,22.74
2016-07-09T06:58:15.345Z,22.67
2016-07-09T06:59:14.717Z,22.78
2016-07-09T07:00:15.316Z,22.7
2016-07-09T07:01:14.687Z,22.74
2016-07-09T07:02:15.283Z,22.66
2016-07-09T07:03:15.277Z,22.7
2016-07-09T07:04:15.254Z,22.69
2016-07-09T07:05:15.232Z,22.69
2016-07-09T07:06:15.225Z,22.66
2016-07-09T07:07:15.211Z,22.7
2016-07-09T07:08:15.191Z,22.74
2016-07-09T07:09:15.178Z,22.75
2016-07-09T07:10:14.546Z,22.79
2016-07-09T07:11:15.146Z,22.76
2016-07-09T07:12:15.134Z,22.64
2016-07-09T07:13:15.120Z,22.69
2016-07-09T07:14:15.108Z,22.69
2016-07-09T07:15:14.481Z,22.69
2016-07-09T07:16:15.068Z,22.66
2016-07-09T07:17:15.056Z,22.72
2016-07-09T07:18:15.047Z,22.7
2016-07-09T07:19:15.019Z,22.79
2016-07-09T07:20:15.020Z,22.76
2016-07-09T07:21:15.013Z,22.75
2016-07-09T07:22:14.980Z,22.7
2016-07-09T07:23:14.966Z,22.7
2016-07-09T07:24:14.953Z,22.69
2016-07-09T07:25:14.943Z,22.74
2016-07-09T07:26:14.924Z,22.7
2016-07-09T07:27:14.909Z,22.76
2016-07-09T07:28:14.893Z,22.76
2016-07-09T07:29:14.895Z,22.85
2016-07-09T07:30:14.918Z,22.75
2016-07-09T07:31:14.844Z,22.79
2016-07-09T07:32:14.830Z,22.74
2016-07-09T07:33:14.821Z,22.85
2016-07-09T07:34:14.797Z,22.85
2016-07-09T07:35:14.793Z,22.7
2016-07-09T07:36:14.771Z,22.69
2016-07-09T07:37:14.755Z,22.72
2016-07-09T07:38:14.127Z,22.72
2016-07-09T07:39:14.112Z,22.72
2016-07-09T07:40:14.704Z,22.72
2016-07-09T07:41:14.699Z,22.72
2016-07-09T07:42:14.678Z,22.7
2016-07-09T07:43:14.668Z,22.69
2016-07-09T07:44:14.649Z,22.74
2016-07-09T07:45:14.631Z,22.69
2016-07-09T07:46:14.614Z,22.66
2016-07-09T07:47:14.609Z,22.64
2016-07-09T07:48:14.598Z,22.75
2016-07-09T07:49:14.569Z,22.74
2016-07-09T07:50:13.944Z,22.72
2016-07-09T07:51:13.935Z,22.67
2016-07-09T07:52:14.534Z,22.69
2016-07-09T07:53:14.522Z,22.69
2016-07-09T07:54:14.503Z,22.72
2016-07-09T07:55:14.487Z,22.84
2016-07-09T07:56:14.478Z,22.75
2016-07-09T07:57:14.477Z,22.85
2016-07-09T07:58:14.455Z,22.75
2016-07-09T07:59:14.431Z,22.78
2016-07-09T08:00:14.416Z,22.81
2016-07-09T08:01:14.402Z,22.82
2016-07-09T08:02:14.381Z,22.82
2016-07-09T08:03:14.360Z,22.84
2016-07-09T08:04:14.355Z,22.82
2016-07-09T08:05:13.715Z,22.84
2016-07-09T08:06:14.323Z,22.82
2016-07-09T08:07:14.305Z,22.81
2016-07-09T08:08:14.294Z,22.86
2016-07-09T08:09:14.279Z,22.88
2016-07-09T08:10:14.261Z,22.85
2016-07-09T08:11:14.244Z,22.82
2016-07-09T08:12:14.230Z,22.82
2016-07-09T08:13:14.217Z,22.82
2016-07-09T08:14:14.201Z,22.82
2016-07-09T08:15:14.180Z,22.85
2016-07-09T08:16:14.176Z,22.82
2016-07-09T08:17:14.151Z,22.81
2016-07-09T08:18:14.140Z,22.84
2016-07-09T08:19:14.122Z,22.85
2016-07-09T08:20:14.111Z,22.81
2016-07-09T08:21:14.095Z,22.81
2016-07-09T08:22:14.082Z,22.81
2016-07-09T08:23:14.073Z,22.88
2016-07-09T08:24:13.438Z,22.84
2016-07-09T08:25:14.025Z,22.81
2016-07-09T08:26:14.022Z,22.82
2016-07-09T08:27:14.009Z,22.79
2016-07-09T08:28:13.994Z,22.84
2016-07-09T08:29:13.973Z,22.81
2016-07-09T08:30:13.966Z,22.78
2016-07-09T08:31:13.942Z,22.84
2016-07-09T08:32:13.939Z,22.86
2016-07-09T08:33:13.916Z,22.82
2016-07-09T08:34:13.905Z,22.79
2016-07-09T08:35:13.890Z,22.85
2016-07-09T08:36:13.865Z,22.79
2016-07-09T08:37:13.853Z,22.93
2016-07-09T08:38:13.840Z,22.82
2016-07-09T08:39:13.820Z,22.79
2016-07-09T08:40:13.808Z,22.79
2016-07-09T08:41:13.807Z,22.85
2016-07-09T08:42:13.780Z,22.84
2016-07-09T08:43:13.761Z,22.81
2016-07-09T08:44:13.754Z,22.88
2016-07-09T08:45:13.735Z,22.82
2016-07-09T08:46:13.721Z,22.81
2016-07-09T08:47:13.700Z,22.89
2016-07-09T08:48:13.692Z,22.76
2016-07-09T08:49:13.670Z,22.69
2016-07-09T08:50:13.656Z,22.61
2016-07-09T08:51:13.643Z,22.56
2016-07-09T08:52:12.402Z,22.46
2016-07-09T08:53:13.007Z,22.33
2016-07-09T08:54:13.602Z,22.35
2016-07-09T08:55:12.971Z,22.52
2016-07-09T08:56:12.948Z,22.54
2016-07-09T08:57:13.554Z,22.21
2016-07-09T08:58:13.542Z,22.26
2016-07-09T08:59:13.523Z,22.15
2016-07-09T09:00:13.521Z,22.35
2016-07-09T09:01:13.501Z,22.3
2016-07-09T09:02:13.480Z,22.29
2016-07-09T09:03:13.465Z,22.21
2016-07-09T09:04:12.224Z,22.24
2016-07-09T09:05:13.444Z,22.3
2016-07-09T09:06:12.803Z,22.29
2016-07-09T09:07:13.406Z,22.27
2016-07-09T09:08:12.786Z,22.33
2016-07-09T09:09:13.367Z,22.31
2016-07-09T09:10:12.764Z,22.42
2016-07-09T09:11:13.354Z,22.33
2016-07-09T09:12:13.327Z,22.21
2016-07-09T09:13:13.313Z,22.24
2016-07-09T09:14:13.299Z,22.12
2016-07-09T09:15:13.285Z,22.17
2016-07-09T09:16:12.041Z,22.08
2016-07-09T09:17:13.249Z,22.08
2016-07-09T09:18:13.247Z,22.14
2016-07-09T09:19:13.223Z,22.08
2016-07-09T09:20:13.196Z,22.14
2016-07-09T09:21:13.192Z,22.15
2016-07-09T09:22:13.181Z,22.08
2016-07-09T09:23:13.156Z,22.09
2016-07-09T09:24:13.147Z,22.14
2016-07-09T09:25:13.130Z,22.08
2016-07-09T09:26:13.101Z,22.14
2016-07-09T09:27:13.097Z,22.27
2016-07-09T09:28:13.073Z,22.23
2016-07-09T09:29:13.061Z,22.24
2016-07-09T09:30:13.049Z,22.24
2016-07-09T09:31:13.035Z,22.2
2016-07-09T09:32:13.021Z,22.33
2016-07-09T09:33:13.001Z,22.27
2016-07-09T09:34:12.984Z,22.35
2016-07-09T09:35:12.968Z,22.29
2016-07-09T09:36:12.953Z,22.27
2016-07-09T09:37:12.328Z,22.38
2016-07-09T09:38:12.926Z,22.2
2016-07-09T09:39:12.908Z,22.19
2016-07-09T09:40:12.899Z,22.17
2016-07-09T09:41:12.879Z,22.21
2016-07-09T09:42:12.254Z,22.21
2016-07-09T09:43:12.843Z,22.29
2016-07-09T09:44:12.832Z,22.29
2016-07-09T09:45:12.817Z,22.27
2016-07-09T09:46:12.798Z,22.29
2016-07-09T09:47:12.783Z,22.42
2016-07-09T09:48:12.151Z,22.42
2016-07-09T09:49:12.147Z,22.45
2016-07-09T09:50:12.755Z,22.54
2016-07-09T09:51:12.724Z,22.54
2016-07-09T09:52:12.704Z,22.45
2016-07-09T09:53:12.691Z,22.46
2016-07-09T09:54:12.684Z,22.46
2016-07-09T09:55:12.666Z,22.59
2016-07-09T09:56:12.195Z,22.56
2016-07-09T09:57:12.016Z,22.56
2016-07-09T09:58:12.619Z,22.6
2016-07-09T09:59:11.983Z,22.61
2016-07-09T10:00:12.597Z,22.56
2016-07-09T10:01:11.959Z,22.45
2016-07-09T10:02:11.933Z,22.48
2016-07-09T10:03:11.916Z,22.51
2016-07-09T10:04:12.516Z,22.49
2016-07-09T10:05:12.505Z,22.48
2016-07-09T10:06:12.484Z,22.52
2016-07-09T10:07:11.865Z,22.56
2016-07-09T10:08:12.465Z,22.57
2016-07-09T10:09:12.450Z,22.54
2016-07-09T10:10:11.828Z,22.63
2016-07-09T10:11:11.793Z,22.6
2016-07-09T10:12:11.784Z,22.6
2016-07-09T10:13:11.766Z,22.7
2016-07-09T10:14:12.359Z,22.66
2016-07-09T10:15:12.353Z,22.69
2016-07-09T10:16:11.115Z,22.72
2016-07-09T10:17:11.700Z,22.66
2016-07-09T10:18:12.315Z,22.72
2016-07-09T10:19:12.299Z,22.74
2016-07-09T10:20:12.277Z,22.75
2016-07-09T10:21:12.259Z,22.76
2016-07-09T10:22:12.248Z,22.69
2016-07-09T10:23:12.228Z,22.7
2016-07-09T10:24:12.226Z,22.79
2016-07-09T10:25:12.204Z,22.78
2016-07-09T10:26:12.184Z,22.78
2016-07-09T10:27:11.575Z,22.79
2016-07-09T10:28:12.156Z,22.78
2016-07-09T10:29:12.139Z,22.78
2016-07-09T10:30:11.524Z,22.82
2016-07-09T10:31:12.114Z,22.81
2016-07-09T10:32:12.094Z,22.84
2016-07-09T10:33:12.080Z,22.82
2016-07-09T10:34:12.063Z,22.74
2016-07-09T10:35:12.048Z,22.81
2016-07-09T10:36:12.030Z,22.82
2016-07-09T10:37:12.021Z,22.88
2016-07-09T10:38:11.998Z,22.88
2016-07-09T10:39:11.981Z,22.86
2016-07-09T10:40:11.982Z,22.94
2016-07-09T10:41:11.959Z,23
2016-07-09T10:42:11.936Z,22.89
2016-07-09T10:43:11.931Z,22.86
2016-07-09T10:44:11.919Z,22.91
2016-07-09T10:45:11.904Z,22.84
2016-07-09T10:46:11.268Z,22.89
2016-07-09T10:47:11.250Z,22.94
2016-07-09T10:48:11.852Z,22.86
2016-07-09T10:49:11.831Z,22.88
2016-07-09T10:50:11.824Z,22.94
2016-07-09T10:51:11.807Z,22.97
2016-07-09T10:52:11.786Z,22.93
2016-07-09T10:53:11.160Z,22.96
2016-07-09T10:54:11.760Z,22.99
2016-07-09T10:55:11.754Z,22.94
2016-07-09T10:56:11.729Z,23
2016-07-09T10:57:11.720Z,22.99
2016-07-09T10:58:11.696Z,22.99
2016-07-09T10:59:11.686Z,22.97
2016-07-09T11:00:11.668Z,23
2016-07-09T11:01:11.657Z,22.99
2016-07-09T11:02:11.018Z,22.94
2016-07-09T11:03:11.627Z,22.97
2016-07-09T11:04:11.606Z,22.97
2016-07-09T11:05:11.589Z,23.03
2016-07-09T11:06:11.578Z,23.06
2016-07-09T11:07:11.569Z,23.09
2016-07-09T11:08:11.544Z,22.99
2016-07-09T11:09:11.538Z,22.96
2016-07-09T11:10:11.517Z,22.96
2016-07-09T11:11:11.510Z,23.03
2016-07-09T11:12:11.487Z,23.01
2016-07-09T11:13:11.478Z,23.03
2016-07-09T11:14:11.464Z,23.04
2016-07-09T11:15:11.442Z,23
2016-07-09T11:16:11.432Z,23.06
2016-07-09T11:17:11.419Z,23.06
2016-07-09T11:18:11.401Z,22.96
2016-07-09T11:19:11.382Z,23.07
2016-07-09T11:20:11.376Z,22.99
2016-07-09T11:21:11.350Z,23.03
2016-07-09T11:22:11.339Z,23.09
2016-07-09T11:23:11.322Z,23.12
2016-07-09T11:24:10.698Z,23.04
2016-07-09T11:25:11.289Z,23
2016-07-09T11:26:11.277Z,23.09
2016-07-09T11:27:11.259Z,23.06
2016-07-09T11:28:11.249Z,23.14
2016-07-09T11:29:11.231Z,23.09
2016-07-09T11:30:11.210Z,23.07
2016-07-09T11:31:10.587Z,23.07
2016-07-09T11:32:11.186Z,23.07
2016-07-09T11:33:11.175Z,23.11
2016-07-09T11:34:11.163Z,23.12
2016-07-09T11:35:11.145Z,23.14
2016-07-09T11:36:11.138Z,23.04
2016-07-09T11:37:11.119Z,23.15
2016-07-09T11:38:11.100Z,23.07
2016-07-09T11:39:11.078Z,23.15
2016-07-09T11:40:11.069Z,23.14
2016-07-09T11:41:11.058Z,23.15
2016-07-09T11:42:10.423Z,23.19
2016-07-09T11:43:11.021Z,23.21
2016-07-09T11:44:11.006Z,23.16
2016-07-09T11:45:10.993Z,23.21
2016-07-09T11:46:10.978Z,23.26
2016-07-09T11:47:10.972Z,23.19
2016-07-09T11:48:10.947Z,23.26
2016-07-09T11:49:10.951Z,23.23
2016-07-09T11:50:10.311Z,23.29
2016-07-09T11:51:10.912Z,23.18
2016-07-09T11:52:10.280Z,23.23
2016-07-09T11:53:10.882Z,23.18
2016-07-09T11:54:10.273Z,23.22
2016-07-09T11:55:10.845Z,23.34
2016-07-09T11:56:10.830Z,23.29
2016-07-09T11:57:10.816Z,23.21
2016-07-09T11:58:10.804Z,23.26
2016-07-09T11:59:10.786Z,23.29
2016-07-09T12:00:10.765Z,23.26
2016-07-09T12:01:10.753Z,23.22
2016-07-09T12:02:10.743Z,23.35
2016-07-09T12:03:10.721Z,23.31
2016-07-09T12:04:10.708Z,23.38
2016-07-09T12:05:10.701Z,23.35
2016-07-09T12:06:10.680Z,23.38
2016-07-09T12:07:10.675Z,23.44
2016-07-09T12:08:10.649Z,23.41
2016-07-09T12:09:10.642Z,23.38
2016-07-09T12:10:10.627Z,23.34
2016-07-09T12:11:10.605Z,23.41
2016-07-09T12:12:10.591Z,23.37
2016-07-09T12:13:10.580Z,23.44
2016-07-09T12:14:10.558Z,23.44
2016-07-09T12:15:10.550Z,23.38
2016-07-09T12:16:10.536Z,23.38
2016-07-09T12:17:10.524Z,23.41
2016-07-09T12:18:10.499Z,23.42
2016-07-09T12:19:10.494Z,23.41
2016-07-09T12:20:10.469Z,23.47
2016-07-09T12:21:10.458Z,23.5
2016-07-09T12:22:10.447Z,23.54
2016-07-09T12:23:10.433Z,23.49
2016-07-09T12:24:10.424Z,23.49
2016-07-09T12:25:10.403Z,23.49
2016-07-09T12:26:10.396Z,23.44
2016-07-09T12:27:10.375Z,23.47
2016-07-09T12:28:09.745Z,23.5
2016-07-09T12:29:10.346Z,23.47
2016-07-09T12:30:10.327Z,23.47
2016-07-09T12:31:10.314Z,23.45
2016-07-09T12:32:10.298Z,23.54
2016-07-09T12:33:10.286Z,23.53
2016-07-09T12:34:09.652Z,23.57
2016-07-09T12:35:09.639Z,23.62
2016-07-09T12:36:10.242Z,23.57
2016-07-09T12:37:10.225Z,23.59
2016-07-09T12:38:10.205Z,23.63
2016-07-09T12:39:10.208Z,23.57
2016-07-09T12:40:10.181Z,23.63
2016-07-09T12:41:10.162Z,23.62
2016-07-09T12:42:10.144Z,23.67
2016-07-09T12:43:10.133Z,23.64
2016-07-09T12:44:10.114Z,23.59
2016-07-09T12:45:10.109Z,23.63
2016-07-09T12:46:10.083Z,23.59
2016-07-09T12:47:09.458Z,23.56
2016-07-09T12:48:09.449Z,23.62
2016-07-09T12:49:09.430Z,23.68
2016-07-09T12:50:10.031Z,23.72
2016-07-09T12:51:09.404Z,23.69
2016-07-09T12:52:09.994Z,23.71
2016-07-09T12:53:09.381Z,23.68
2016-07-09T12:54:09.968Z,23.67